createdAt,value
2023-05-01T00:00:05.312Z,10.20
2023-05-01T00:01:03.345Z,10.60
2023-05-01T00:02:03.318Z,10.60
2023-05-01T00:03:03.521Z,10.30
2023-05-01T00:04:03.390Z,10.30
2023-05-01T00:05:03.452Z,10.20
2023-05-01T00:06:03.367Z,10.90
2023-05-01T00:07:03.458Z,10.60
2023-05-01T00:08:03.252Z,11.90
2023-05-01T00:09:03.236Z,11.60
2023-05-01T00:10:03.225Z,10.30
2023-05-01T00:11:03.219Z,10.50
2023-05-01T00:12:03.254Z,10.80
2023-05-01T00:13:03.192Z,10.50
2023-05-01T00:14:03.185Z,10.40
2023-05-01T00:15:03.165Z,10.50
2023-05-01T00:16:03.173Z,10.50
2023-05-01T00:17:03.169Z,10.50
2023-05-01T00:18:03.186Z,10.50
2023-05-01T00:19:03.124Z,10.50
2023-05-01T00:20:03.110Z,10.40
2023-05-01T00:21:03.119Z,10.60
2023-05-01T00:22:03.110Z,10.50
2023-05-01T00:23:03.079Z,10.60
2023-05-01T00:24:03.075Z,10.80
2023-05-01T00:25:03.067Z,10.50
2023-05-01T00:26:03.154Z,10.60
2023-05-01T00:27:03.049Z,10.50
2023-05-01T00:28:03.030Z,10.50
2023-05-01T00:29:03.015Z,10.40
2023-05-01T00:30:03.006Z,10.40
2023-05-01T00:31:03.022Z,10.60
2023-05-01T00:32:03.057Z,10.50
2023-05-01T00:33:02.982Z,10.80
2023-05-01T00:34:02.964Z,10.70
2023-05-01T00:35:02.962Z,10.20
2023-05-01T00:36:02.962Z,10.90
2023-05-01T00:37:02.961Z,10.60
2023-05-01T00:38:02.919Z,10.70
2023-05-01T00:39:02.918Z,11.30
2023-05-01T00:40:02.898Z,10.70
2023-05-01T00:41:02.902Z,11.00
2023-05-01T00:42:02.922Z,11.30
2023-05-01T00:43:02.884Z,11.00
2023-05-01T00:44:02.857Z,11.00
2023-05-01T00:45:02.845Z,10.70
2023-05-01T00:46:02.911Z,10.90
2023-05-01T00:47:02.846Z,11.10
2023-05-01T00:48:02.897Z,11.30
2023-05-01T00:49:02.822Z,11.20
2023-05-01T00:50:02.798Z,11.20
2023-05-01T00:51:02.822Z,11.80
2023-05-01T00:52:02.771Z,11.70
2023-05-01T00:53:02.784Z,11.80
2023-05-01T00:54:02.749Z,11.90
2023-05-01T00:55:02.774Z,11.40
2023-05-01T00:56:02.763Z,11.50
2023-05-01T00:57:02.767Z,11.40
2023-05-01T00:58:02.704Z,11.60
2023-05-01T00:59:02.706Z,11.30
2023-05-01T01:00:02.689Z,11.30
2023-05-01T01:01:02.732Z,11.50
2023-05-01T01:02:02.678Z,11.40
2023-05-01T01:03:02.740Z,11.30
2023-05-01T01:04:02.651Z,11.70
2023-05-01T01:05:02.633Z,11.30
2023-05-01T01:06:02.676Z,11.50
2023-05-01T01:07:02.621Z,12.90
2023-05-01T01:08:02.596Z,11.90
2023-05-01T01:09:02.604Z,11.40
2023-05-01T01:10:02.573Z,12.20
2023-05-01T01:11:02.590Z,11.90
2023-05-01T01:12:02.560Z,11.60
2023-05-01T01:13:02.548Z,11.30
2023-05-01T01:14:02.537Z,11.60
2023-05-01T01:15:02.535Z,11.70
2023-05-01T01:16:02.543Z,11.40
2023-05-01T01:17:02.554Z,11.50
2023-05-01T01:18:02.546Z,11.20
2023-05-01T01:19:02.478Z,11.40
2023-05-01T01:20:02.471Z,11.50
2023-05-01T01:21:02.479Z,11.50
2023-05-01T01:22:02.448Z,11.80
2023-05-01T01:23:02.452Z,11.70
2023-05-01T01:24:02.428Z,11.80
2023-05-01T01:25:02.435Z,11.50
2023-05-01T01:26:02.428Z,11.20
2023-05-01T01:27:02.396Z,11.30
2023-05-01T01:28:02.379Z,11.50
2023-05-01T01:29:02.381Z,11.50
2023-05-01T01:30:02.357Z,11.40
2023-05-01T01:31:02.413Z,11.40
2023-05-01T01:32:02.347Z,11.20
2023-05-01T01:33:02.357Z,11.30
2023-05-01T01:34:02.319Z,11.20
2023-05-01T01:35:02.308Z,11.10
2023-05-01T01:36:02.358Z,11.20
2023-05-01T01:37:02.298Z,11.50
2023-05-01T01:38:02.278Z,11.20
2023-05-01T01:39:02.271Z,12.20
2023-05-01T01:40:02.251Z,11.90
2023-05-01T01:41:02.295Z,11.30
2023-05-01T01:42:02.239Z,11.20
2023-05-01T01:43:02.221Z,11.30
2023-05-01T01:44:02.219Z,11.30
2023-05-01T01:45:02.205Z,11.00
2023-05-01T01:46:02.346Z,11.10
2023-05-01T01:47:02.180Z,11.50
2023-05-01T01:48:02.199Z,11.20
2023-05-01T01:49:02.163Z,11.50
2023-05-01T01:50:02.149Z,11.30
2023-05-01T01:51:02.183Z,11.20
2023-05-01T01:52:02.140Z,11.40
2023-05-01T01:53:02.120Z,13.10
2023-05-01T01:54:02.108Z,11.70
2023-05-01T01:55:02.101Z,11.20
2023-05-01T01:56:03.725Z,11.40
2023-05-01T01:57:02.089Z,11.40
2023-05-01T01:58:02.071Z,11.60
2023-05-01T01:59:02.049Z,11.50
2023-05-01T02:00:02.051Z,11.30
2023-05-01T02:01:02.050Z,11.30
2023-05-01T02:02:02.059Z,11.60
2023-05-01T02:03:02.116Z,11.70
2023-05-01T02:04:02.039Z,12.10
2023-05-01T02:05:01.985Z,11.50
2023-05-01T02:06:02.017Z,12.00
2023-05-01T02:07:01.965Z,11.70
2023-05-01T02:08:01.953Z,11.40
2023-05-01T02:09:01.945Z,12.20
2023-05-01T02:10:01.931Z,11.70
2023-05-01T02:11:02.393Z,11.70
2023-05-01T02:12:01.915Z,11.70
2023-05-01T02:13:01.926Z,11.90
2023-05-01T02:14:01.916Z,11.90
2023-05-01T02:15:01.889Z,11.50
2023-05-01T02:16:01.935Z,11.70
2023-05-01T02:17:01.856Z,11.60
2023-05-01T02:18:01.987Z,11.70
2023-05-01T02:19:01.846Z,11.80
2023-05-01T02:20:01.847Z,12.00
2023-05-01T02:21:01.852Z,12.20
2023-05-01T02:22:01.807Z,11.90
2023-05-01T02:23:01.797Z,12.00
2023-05-01T02:24:01.788Z,11.80
2023-05-01T02:25:01.872Z,11.50
2023-05-01T02:26:01.800Z,11.60
2023-05-01T02:27:01.760Z,11.60
2023-05-01T02:28:01.783Z,11.60
2023-05-01T02:29:01.763Z,11.60
2023-05-01T02:30:01.722Z,11.60
2023-05-01T02:31:01.748Z,11.80
2023-05-01T02:32:01.904Z,11.80
2023-05-01T02:33:01.726Z,11.70
2023-05-01T02:34:01.678Z,11.50
2023-05-01T02:35:01.688Z,11.70
2023-05-01T02:36:01.679Z,11.50
2023-05-01T02:37:01.646Z,12.20
2023-05-01T02:38:01.635Z,12.80
2023-05-01T02:39:01.625Z,11.80
2023-05-01T02:40:01.613Z,11.80
2023-05-01T02:41:01.618Z,12.60
2023-05-01T02:42:01.591Z,11.50
2023-05-01T02:43:01.590Z,11.70
2023-05-01T02:44:01.569Z,11.60
2023-05-01T02:45:01.583Z,11.50
2023-05-01T02:46:08.658Z,11.50
2023-05-01T02:47:01.620Z,11.40
2023-05-01T02:48:01.565Z,11.50
2023-05-01T02:49:01.516Z,11.50
2023-05-01T02:50:01.540Z,11.60
2023-05-01T02:51:01.491Z,11.40
2023-05-01T02:52:01.485Z,11.90
2023-05-01T02:53:01.472Z,11.90
2023-05-01T02:54:01.462Z,11.60
2023-05-01T02:55:01.457Z,12.20
2023-05-01T02:56:01.447Z,11.50
2023-05-01T02:57:01.427Z,11.60
2023-05-01T02:58:01.417Z,11.40
2023-05-01T02:59:01.531Z,11.30
2023-05-01T03:00:01.414Z,12.30
2023-05-01T03:01:01.458Z,11.60
2023-05-01T03:02:01.387Z,12.10
2023-05-01T03:03:01.414Z,11.80
2023-05-01T03:04:01.416Z,11.80
2023-05-01T03:05:01.356Z,11.80
2023-05-01T03:06:01.384Z,11.90
2023-05-01T03:07:01.330Z,12.30
2023-05-01T03:08:01.316Z,12.80
2023-05-01T03:09:01.298Z,11.70
2023-05-01T03:10:01.318Z,12.00
2023-05-01T03:11:01.276Z,11.90
2023-05-01T03:12:01.273Z,11.50
2023-05-01T03:13:01.266Z,11.60
2023-05-01T03:14:01.264Z,11.80
2023-05-01T03:15:01.280Z,11.90
2023-05-01T03:16:09.202Z,11.50
2023-05-01T03:17:01.212Z,11.70
2023-05-01T03:18:01.236Z,11.80
2023-05-01T03:19:01.199Z,11.70
2023-05-01T03:20:01.225Z,11.60
2023-05-01T03:21:01.172Z,11.90
2023-05-01T03:22:01.170Z,11.90
2023-05-01T03:23:01.185Z,11.60
2023-05-01T03:24:01.141Z,13.20
2023-05-01T03:25:01.150Z,11.60
2023-05-01T03:26:01.124Z,11.60
2023-05-01T03:27:01.116Z,11.60
2023-05-01T03:28:01.101Z,11.90
2023-05-01T03:29:01.100Z,11.40
2023-05-01T03:30:01.093Z,11.60
2023-05-01T03:31:08.656Z,11.60
2023-05-01T03:32:01.105Z,11.50
2023-05-01T03:33:01.195Z,11.70
2023-05-01T03:34:01.029Z,11.80
2023-05-01T03:35:01.062Z,11.90
2023-05-01T03:36:01.004Z,11.90
2023-05-01T03:37:00.992Z,12.00
2023-05-01T03:38:01.002Z,12.10
2023-05-01T03:39:00.988Z,12.10
2023-05-01T03:41:10.854Z,11.20
2023-05-01T03:42:10.838Z,11.80
2023-05-01T03:43:10.818Z,11.80
2023-05-01T03:44:10.808Z,11.70
2023-05-01T03:45:10.816Z,11.80
2023-05-01T03:46:10.809Z,12.10
2023-05-01T03:47:10.795Z,11.80
2023-05-01T03:48:10.863Z,12.10
2023-05-01T03:49:10.766Z,12.20
2023-05-01T03:50:10.755Z,12.10
2023-05-01T03:51:10.730Z,12.30
2023-05-01T03:52:10.725Z,12.40
2023-05-01T03:53:10.725Z,12.50
2023-05-01T03:54:10.734Z,12.30
2023-05-01T03:55:10.707Z,12.30
2023-05-01T03:56:10.680Z,12.30
2023-05-01T03:57:10.670Z,12.10
2023-05-01T03:58:10.677Z,12.10
2023-05-01T03:59:10.644Z,12.00
2023-05-01T04:00:10.648Z,12.20
2023-05-01T04:01:10.627Z,12.00
2023-05-01T04:02:10.734Z,12.00
2023-05-01T04:03:10.710Z,12.60
2023-05-01T04:04:10.746Z,12.30
2023-05-01T04:05:10.617Z,11.80
2023-05-01T04:06:10.614Z,12.80
2023-05-01T04:07:10.561Z,12.40
2023-05-01T04:08:10.551Z,12.00
2023-05-01T04:09:10.541Z,13.90
2023-05-01T04:10:10.547Z,12.30
2023-05-01T04:11:10.543Z,12.70
2023-05-01T04:12:10.507Z,12.80
2023-05-01T04:13:10.499Z,12.50
2023-05-01T04:14:10.484Z,12.30
2023-05-01T04:15:10.491Z,12.30
2023-05-01T04:16:10.597Z,11.90
2023-05-01T04:17:10.458Z,12.40
2023-05-01T04:18:10.511Z,12.30
2023-05-01T04:19:10.477Z,12.10
2023-05-01T04:20:10.429Z,12.30
2023-05-01T04:21:10.415Z,12.40
2023-05-01T04:22:10.405Z,13.00
2023-05-01T04:23:10.401Z,12.40
2023-05-01T04:24:10.379Z,13.40
2023-05-01T04:25:10.387Z,12.70
2023-05-01T04:26:10.369Z,12.50
2023-05-01T04:27:10.355Z,12.40
2023-05-01T04:28:10.326Z,12.70
2023-05-01T04:29:10.336Z,12.40
2023-05-01T04:30:10.312Z,12.40
2023-05-01T04:31:10.346Z,12.20
2023-05-01T04:32:10.298Z,12.60
2023-05-01T04:33:10.325Z,13.30
2023-05-01T04:34:10.295Z,12.50
2023-05-01T04:35:10.297Z,12.20
2023-05-01T04:36:10.242Z,13.70
2023-05-01T04:37:10.229Z,12.60
2023-05-01T04:38:10.224Z,12.40
2023-05-01T04:39:10.214Z,12.40
2023-05-01T04:40:11.543Z,12.20
2023-05-01T04:41:10.185Z,13.40
2023-05-01T04:42:10.177Z,12.50
2023-05-01T04:43:10.174Z,12.00
2023-05-01T04:44:10.163Z,11.90
2023-05-01T04:45:10.162Z,12.30
2023-05-01T04:46:10.133Z,11.70
2023-05-01T04:47:10.160Z,11.70
2023-05-01T04:48:10.143Z,12.20
2023-05-01T04:49:10.111Z,11.70
2023-05-01T04:50:10.102Z,11.60
2023-05-01T04:51:10.093Z,11.90
2023-05-01T04:52:10.068Z,12.30
2023-05-01T04:53:10.061Z,11.60
2023-05-01T04:54:10.050Z,11.90
2023-05-01T04:55:10.040Z,12.10
2023-05-01T04:56:10.016Z,12.60
2023-05-01T04:57:10.015Z,11.80
2023-05-01T04:58:09.997Z,12.20
2023-05-01T04:59:09.989Z,12.30
2023-05-01T05:00:10.000Z,12.30
2023-05-01T05:01:10.019Z,12.10
2023-05-01T05:02:09.954Z,12.10
2023-05-01T05:03:10.067Z,11.90
2023-05-01T05:04:09.985Z,12.20
2023-05-01T05:05:09.956Z,12.10
2023-05-01T05:06:09.983Z,12.00
2023-05-01T05:07:09.934Z,12.00
2023-05-01T05:08:09.892Z,11.50
2023-05-01T05:09:09.877Z,11.90
2023-05-01T05:10:09.899Z,12.20
2023-05-01T05:11:09.864Z,11.50
2023-05-01T05:12:09.844Z,12.00
2023-05-01T05:13:09.875Z,11.60
2023-05-01T05:14:09.822Z,11.60
2023-05-01T05:15:09.832Z,12.00
2023-05-01T05:16:09.837Z,12.00
2023-05-01T05:17:09.792Z,12.20
2023-05-01T05:18:09.865Z,12.10
2023-05-01T05:19:09.771Z,12.10
2023-05-01T05:20:09.787Z,11.80
2023-05-01T05:21:09.751Z,11.80
2023-05-01T05:22:09.741Z,12.20
2023-05-01T05:23:09.758Z,11.50
2023-05-01T05:24:09.712Z,11.80
2023-05-01T05:25:09.748Z,11.80
2023-05-01T05:26:09.689Z,12.00
2023-05-01T05:27:09.686Z,12.00
2023-05-01T05:28:09.666Z,11.50
2023-05-01T05:29:09.658Z,11.70
2023-05-01T05:30:09.665Z,11.90
2023-05-01T05:31:09.641Z,11.20
2023-05-01T05:32:09.732Z,11.80
2023-05-01T05:33:09.714Z,11.60
2023-05-01T05:34:09.608Z,11.50
2023-05-01T05:35:09.618Z,12.10
2023-05-01T05:36:09.583Z,12.00
2023-05-01T05:37:09.576Z,11.90
2023-05-01T05:38:09.563Z,11.50
2023-05-01T05:39:09.586Z,11.80
2023-05-01T05:40:09.549Z,11.40
2023-05-01T05:41:09.531Z,11.40
2023-05-01T05:42:09.514Z,11.50
2023-05-01T05:43:09.505Z,11.30
2023-05-01T05:44:09.512Z,10.90
2023-05-01T05:45:09.500Z,12.30
2023-05-01T05:46:09.686Z,11.20
2023-05-01T05:47:09.464Z,11.40
2023-05-01T05:48:09.486Z,11.10
2023-05-01T05:49:09.492Z,11.60
2023-05-01T05:50:09.428Z,11.20
2023-05-01T05:51:09.428Z,10.90
2023-05-01T05:52:09.407Z,11.50
2023-05-01T05:53:09.399Z,12.00
2023-05-01T05:54:09.416Z,11.30
2023-05-01T05:55:09.398Z,11.60
2023-05-01T05:56:09.362Z,11.30
2023-05-01T05:57:09.359Z,10.70
2023-05-01T05:58:09.342Z,11.00
2023-05-01T05:59:09.346Z,10.50
2023-05-01T06:00:09.372Z,11.20
2023-05-01T06:01:09.328Z,11.60
2023-05-01T06:02:09.372Z,11.40
2023-05-01T06:03:09.363Z,11.20
2023-05-01T06:04:09.335Z,11.60
2023-05-01T06:05:09.357Z,11.30
2023-05-01T06:06:09.477Z,10.70
2023-05-01T06:07:09.248Z,11.40
2023-05-01T06:08:09.231Z,11.30
2023-05-01T06:09:09.247Z,11.30
2023-05-01T06:10:09.212Z,10.90
2023-05-01T06:11:09.262Z,10.70
2023-05-01T06:12:09.200Z,11.50
2023-05-01T06:13:13.441Z,11.10
2023-05-01T06:14:10.182Z,10.30
2023-05-01T06:15:09.183Z,12.10
2023-05-01T06:16:09.196Z,10.90
2023-05-01T06:17:09.143Z,10.90
2023-05-01T06:18:09.312Z,11.20
2023-05-01T06:19:09.145Z,11.00
2023-05-01T06:20:09.127Z,10.50
2023-05-01T06:21:09.089Z,10.20
2023-05-01T06:22:09.088Z,10.40
2023-05-01T06:23:09.152Z,11.00
2023-05-01T06:24:09.105Z,10.60
2023-05-01T06:25:09.054Z,10.50
2023-05-01T06:26:09.051Z,10.90
2023-05-01T06:27:09.051Z,11.10
2023-05-01T06:28:09.019Z,10.80
2023-05-01T06:29:09.035Z,11.00
2023-05-01T06:30:08.999Z,11.40
2023-05-01T06:31:09.055Z,11.30
2023-05-01T06:32:08.975Z,10.80
2023-05-01T06:33:09.042Z,11.30
2023-05-01T06:34:09.007Z,10.60
2023-05-01T06:35:08.962Z,10.40
2023-05-01T06:36:08.934Z,11.50
2023-05-01T06:37:08.912Z,10.90
2023-05-01T06:38:08.903Z,10.40
2023-05-01T06:39:08.913Z,11.20
2023-05-01T06:40:08.884Z,10.80
2023-05-01T06:41:08.869Z,10.30
2023-05-01T06:42:08.862Z,11.10
2023-05-01T06:43:08.870Z,10.40
2023-05-01T06:44:08.849Z,10.10
2023-05-01T06:45:08.840Z,10.90
2023-05-01T06:46:08.939Z,10.70
2023-05-01T06:47:08.879Z,11.00
2023-05-01T06:48:08.849Z,10.30
2023-05-01T06:49:08.812Z,10.70
2023-05-01T06:50:08.771Z,10.40
2023-05-01T06:51:08.756Z,10.20
2023-05-01T06:52:08.751Z,10.70
2023-05-01T06:53:08.739Z,10.40
2023-05-01T06:54:08.773Z,10.50
2023-05-01T06:55:08.751Z,10.80
2023-05-01T06:56:08.719Z,10.30
2023-05-01T06:57:08.695Z,10.90
2023-05-01T06:58:19.926Z,10.20
2023-05-01T06:59:09.704Z,10.30
2023-05-01T07:00:08.667Z,10.50
2023-05-01T07:01:08.736Z,10.20
2023-05-01T07:02:08.664Z,10.40
2023-05-01T07:03:08.681Z,10.70
2023-05-01T07:04:08.643Z,10.30
2023-05-01T07:05:08.605Z,10.40
2023-05-01T07:06:08.628Z,9.90
2023-05-01T07:07:08.613Z,10.30
2023-05-01T07:08:08.576Z,10.00
2023-05-01T07:09:08.571Z,10.00
2023-05-01T07:10:08.563Z,10.70
2023-05-01T07:11:08.552Z,10.50
2023-05-01T07:12:08.543Z,10.90
2023-05-01T07:13:08.519Z,10.80
2023-05-01T07:14:08.519Z,10.70
2023-05-01T07:15:08.515Z,10.90
2023-05-01T07:16:08.523Z,10.80
2023-05-01T07:17:08.479Z,10.20
2023-05-01T07:18:08.782Z,9.90
2023-05-01T07:19:08.452Z,10.10
2023-05-01T07:20:08.465Z,10.30
2023-05-01T07:21:08.455Z,10.00
2023-05-01T07:22:08.422Z,10.00
2023-05-01T07:23:08.414Z,10.20
2023-05-01T07:24:08.421Z,10.70
2023-05-01T07:25:08.405Z,10.50
2023-05-01T07:26:08.383Z,10.50
2023-05-01T07:27:08.375Z,11.10
2023-05-01T07:28:08.359Z,10.50
2023-05-01T07:29:08.374Z,10.30
2023-05-01T07:30:08.343Z,11.00
2023-05-01T07:31:08.340Z,10.40
2023-05-01T07:32:08.369Z,10.20
2023-05-01T07:33:08.354Z,10.60
2023-05-01T07:34:08.336Z,10.90
2023-05-01T07:35:08.277Z,10.30
2023-05-01T07:36:08.276Z,11.30
2023-05-01T07:37:08.256Z,10.20
2023-05-01T07:38:08.249Z,10.20
2023-05-01T07:39:08.260Z,11.00
2023-05-01T07:40:08.241Z,10.30
2023-05-01T07:41:08.235Z,10.30
2023-05-01T07:42:08.212Z,10.80
2023-05-01T07:43:08.199Z,11.20
2023-05-01T07:44:08.250Z,10.60
2023-05-01T07:45:08.280Z,10.40
2023-05-01T07:46:08.200Z,12.50
2023-05-01T07:47:08.181Z,10.30
2023-05-01T07:48:08.219Z,10.20
2023-05-01T07:49:08.153Z,10.80
2023-05-01T07:50:08.115Z,10.70
2023-05-01T07:51:08.103Z,10.90
2023-05-01T07:52:08.100Z,10.70
2023-05-01T07:53:08.092Z,10.70
2023-05-01T07:54:08.084Z,10.90
2023-05-01T07:55:08.084Z,10.40
2023-05-01T07:56:08.050Z,11.80
2023-05-01T07:57:08.047Z,10.90
2023-05-01T07:58:08.030Z,10.30
2023-05-01T07:59:08.034Z,10.70
2023-05-01T08:00:08.010Z,10.00
2023-05-01T08:01:07.994Z,10.50
2023-05-01T08:02:08.087Z,10.50
2023-05-01T08:03:08.117Z,10.10
2023-05-01T08:04:08.099Z,10.50
2023-05-01T08:05:07.954Z,10.30
2023-05-01T08:06:08.011Z,10.50
2023-05-01T08:07:07.928Z,10.20
2023-05-01T08:08:07.941Z,10.20
2023-05-01T08:09:07.925Z,11.10
2023-05-01T08:10:07.921Z,10.30
2023-05-01T08:11:07.890Z,10.50
2023-05-01T08:12:07.881Z,10.10
2023-05-01T08:13:07.871Z,10.10
2023-05-01T08:14:07.899Z,10.60
2023-05-01T08:15:07.845Z,9.60
2023-05-01T08:16:07.894Z,10.10
2023-05-01T08:17:07.825Z,10.70
2023-05-01T08:18:07.887Z,11.40
2023-05-01T08:19:07.850Z,10.20
2023-05-01T08:20:07.793Z,10.50
2023-05-01T08:21:07.796Z,10.80
2023-05-01T08:22:07.776Z,10.40
2023-05-01T08:23:07.763Z,11.00
2023-05-01T08:24:07.786Z,10.70
2023-05-01T08:25:07.743Z,10.90
2023-05-01T08:26:07.746Z,10.50
2023-05-01T08:27:07.726Z,10.70
2023-05-01T08:28:07.722Z,10.70
2023-05-01T08:29:07.705Z,11.20
2023-05-01T08:30:07.712Z,10.90
2023-05-01T08:31:07.728Z,10.70
2023-05-01T08:32:07.670Z,10.70
2023-05-01T08:33:07.750Z,11.00
2023-05-01T08:34:07.675Z,11.40
2023-05-01T08:35:07.655Z,10.20
2023-05-01T08:36:07.644Z,10.80
2023-05-01T08:37:07.617Z,12.00
2023-05-01T08:38:07.617Z,10.40
2023-05-01T08:39:07.609Z,10.30
2023-05-01T08:40:07.585Z,10.70
2023-05-01T08:41:07.577Z,10.70
2023-05-01T08:42:07.561Z,10.70
2023-05-01T08:43:07.549Z,11.00
2023-05-01T08:44:07.551Z,10.90
2023-05-01T08:45:07.531Z,10.10
2023-05-01T08:46:07.575Z,11.00
2023-05-01T08:47:07.598Z,10.50
2023-05-01T08:48:07.535Z,11.30
2023-05-01T08:49:07.501Z,11.30
2023-05-01T08:50:07.470Z,10.60
2023-05-01T08:51:07.474Z,10.20
2023-05-01T08:52:07.453Z,11.20
2023-05-01T08:53:07.438Z,11.30
2023-05-01T08:54:07.445Z,11.20
2023-05-01T08:55:07.426Z,11.90
2023-05-01T08:56:07.408Z,11.40
2023-05-01T08:57:09.699Z,10.60
2023-05-01T08:58:07.384Z,10.70
2023-05-01T08:59:07.384Z,10.50
2023-05-01T09:00:07.365Z,10.10
2023-05-01T09:01:07.399Z,10.10
2023-05-01T09:02:07.387Z,10.10
2023-05-01T09:03:07.457Z,10.10
2023-05-01T09:04:07.438Z,10.60
2023-05-01T09:05:07.309Z,10.90
2023-05-01T09:06:07.323Z,12.90
2023-05-01T09:07:07.304Z,10.00
2023-05-01T09:08:07.278Z,10.70
2023-05-01T09:09:07.292Z,10.30
2023-05-01T09:10:07.280Z,9.80
2023-05-01T09:11:07.245Z,10.40
2023-05-01T09:12:07.237Z,10.60
2023-05-01T09:13:07.235Z,9.90
2023-05-01T09:14:07.258Z,10.50
2023-05-01T09:15:07.203Z,11.70
2023-05-01T09:16:07.273Z,10.30
2023-05-01T09:17:07.177Z,10.40
2023-05-01T09:18:07.197Z,11.90
2023-05-01T09:19:07.176Z,11.10
2023-05-01T09:20:07.159Z,11.50
2023-05-01T09:21:07.162Z,11.50
2023-05-01T09:22:07.130Z,11.50
2023-05-01T09:23:07.144Z,11.60
2023-05-01T09:24:07.132Z,11.50
2023-05-01T09:25:07.097Z,12.10
2023-05-01T09:26:07.091Z,13.30
2023-05-01T09:27:07.070Z,11.40
2023-05-01T09:28:07.131Z,11.90
2023-05-01T09:29:07.054Z,11.80
2023-05-01T09:30:07.056Z,11.30
2023-05-01T09:31:07.033Z,11.80
2023-05-01T09:32:07.058Z,11.30
2023-05-01T09:33:07.065Z,12.20
2023-05-01T09:34:07.000Z,12.30
2023-05-01T09:35:07.026Z,11.90
2023-05-01T09:36:06.981Z,11.70
2023-05-01T09:37:06.972Z,12.00
2023-05-01T09:38:06.960Z,12.70
2023-05-01T09:39:06.966Z,11.40
2023-05-01T09:40:07.007Z,12.00
2023-05-01T09:41:06.940Z,12.10
2023-05-01T09:42:06.917Z,11.60
2023-05-01T09:43:06.904Z,11.10
2023-05-01T09:44:06.894Z,10.50
2023-05-01T09:45:06.905Z,11.20
2023-05-01T09:46:07.015Z,11.70
2023-05-01T09:47:06.863Z,11.50
2023-05-01T09:48:06.959Z,11.60
2023-05-01T09:49:06.861Z,11.30
2023-05-01T09:50:06.838Z,11.50
2023-05-01T09:51:06.818Z,11.30
2023-05-01T09:52:06.808Z,10.50
2023-05-01T09:53:06.800Z,12.00
2023-05-01T09:54:06.828Z,11.90
2023-05-01T09:55:06.794Z,11.20
2023-05-01T09:56:06.767Z,11.30
2023-05-01T09:57:06.766Z,11.80
2023-05-01T09:58:06.748Z,11.70
2023-05-01T09:59:06.760Z,11.40
2023-05-01T10:00:06.727Z,11.00
2023-05-01T10:01:06.800Z,11.20
2023-05-01T10:02:06.749Z,10.90
2023-05-01T10:03:08.466Z,11.10
2023-05-01T10:04:06.746Z,11.20
2023-05-01T10:05:06.675Z,11.40
2023-05-01T10:06:06.676Z,11.70
2023-05-01T10:07:06.649Z,11.50
2023-05-01T10:08:06.661Z,11.00
2023-05-01T10:09:06.645Z,10.80
2023-05-01T10:10:06.621Z,11.10
2023-05-01T10:11:06.627Z,11.70
2023-05-01T10:12:06.607Z,11.40
2023-05-01T10:13:06.587Z,10.40
2023-05-01T10:14:06.602Z,10.80
2023-05-01T10:15:17.620Z,12.20
2023-05-01T10:16:07.573Z,12.50
2023-05-01T10:17:06.627Z,10.80
2023-05-01T10:18:06.597Z,11.20
2023-05-01T10:19:06.537Z,11.80
2023-05-01T10:20:06.517Z,11.20
2023-05-01T10:21:06.505Z,11.30
2023-05-01T10:22:06.550Z,10.90
2023-05-01T10:23:06.490Z,11.50
2023-05-01T10:24:06.528Z,10.80
2023-05-01T10:25:06.469Z,11.10
2023-05-01T10:26:07.162Z,12.70
2023-05-01T10:27:06.468Z,10.70
2023-05-01T10:28:06.457Z,10.90
2023-05-01T10:29:06.438Z,11.70
2023-05-01T10:30:06.413Z,11.10
2023-05-01T10:31:06.433Z,11.00
2023-05-01T10:32:06.387Z,12.60
2023-05-01T10:33:06.442Z,11.10
2023-05-01T10:34:06.380Z,11.50
2023-05-01T10:35:06.374Z,13.30
2023-05-01T10:36:06.345Z,11.20
2023-05-01T10:37:06.333Z,11.70
2023-05-01T10:38:06.318Z,11.40
2023-05-01T10:39:06.329Z,11.50
2023-05-01T10:40:06.309Z,11.20
2023-05-01T10:41:06.294Z,10.90
2023-05-01T10:42:06.351Z,11.50
2023-05-01T10:43:06.389Z,11.50
2023-05-01T10:44:06.317Z,12.10
2023-05-01T10:45:06.271Z,10.70
2023-05-01T10:46:06.308Z,11.80
2023-05-01T10:47:06.271Z,12.60
2023-05-01T10:48:06.233Z,10.80
2023-05-01T10:49:06.237Z,11.10
2023-05-01T10:50:06.199Z,11.60
2023-05-01T10:51:06.182Z,12.40
2023-05-01T10:52:06.163Z,11.60
2023-05-01T10:53:06.157Z,11.10
2023-05-01T10:54:06.168Z,10.50
2023-05-01T10:55:06.135Z,12.60
2023-05-01T10:56:06.129Z,12.60
2023-05-01T10:57:06.130Z,11.10
2023-05-01T10:58:06.100Z,12.10
2023-05-01T10:59:06.212Z,11.50
2023-05-01T11:00:06.081Z,10.70
2023-05-01T11:01:06.070Z,12.30
2023-05-01T11:02:06.098Z,12.90
2023-05-01T11:03:06.084Z,11.10
2023-05-01T11:04:06.052Z,10.60
2023-05-01T11:05:06.081Z,11.30
2023-05-01T11:06:06.226Z,11.50
2023-05-01T11:07:06.124Z,10.80
2023-05-01T11:08:05.998Z,10.60
2023-05-01T11:09:06.002Z,11.10
2023-05-01T11:10:05.976Z,10.90
2023-05-01T11:11:05.964Z,12.10
2023-05-01T11:12:05.951Z,11.90
2023-05-01T11:13:05.938Z,10.30
2023-05-01T11:14:05.974Z,11.50
2023-05-01T11:15:06.128Z,10.80
2023-05-01T11:16:05.956Z,10.70
2023-05-01T11:17:05.896Z,12.60
2023-05-01T11:18:06.114Z,11.50
2023-05-01T11:19:05.897Z,11.00
2023-05-01T11:20:05.867Z,11.10
2023-05-01T11:21:05.899Z,11.90
2023-05-01T11:22:05.844Z,11.30
2023-05-01T11:23:05.836Z,10.80
2023-05-01T11:24:05.842Z,10.60
2023-05-01T11:25:05.810Z,11.00
2023-05-01T11:26:05.802Z,10.70
2023-05-01T11:27:05.831Z,10.70
2023-05-01T11:28:05.772Z,12.00
2023-05-01T11:29:05.786Z,11.20
2023-05-01T11:30:05.763Z,10.50
2023-05-01T11:31:05.763Z,12.40
2023-05-01T11:32:05.776Z,12.20
2023-05-01T11:33:07.095Z,11.00
2023-05-01T11:34:05.740Z,10.50
2023-05-01T11:35:05.701Z,10.70
2023-05-01T11:36:05.708Z,11.40
2023-05-01T11:37:05.689Z,10.60
2023-05-01T11:38:05.661Z,11.60
2023-05-01T11:39:05.697Z,11.50
2023-05-01T11:40:05.645Z,10.30
2023-05-01T11:41:05.640Z,10.20
2023-05-01T11:42:05.659Z,10.60
2023-05-01T11:43:05.615Z,11.40
2023-05-01T11:44:05.611Z,11.80
2023-05-01T11:45:05.589Z,9.90
2023-05-01T11:46:05.635Z,10.70
2023-05-01T11:47:05.586Z,10.70
2023-05-01T11:48:05.703Z,11.10
2023-05-01T11:49:05.577Z,11.40
2023-05-01T11:50:05.535Z,10.60
2023-05-01T11:51:05.522Z,10.60
2023-05-01T11:52:05.516Z,12.40
2023-05-01T11:53:05.501Z,10.60
2023-05-01T11:54:05.519Z,10.50
2023-05-01T11:55:05.482Z,10.30
2023-05-01T11:56:13.291Z,11.50
2023-05-01T11:57:06.462Z,10.70
2023-05-01T11:58:05.451Z,10.70
2023-05-01T11:59:05.449Z,10.50
2023-05-01T12:00:05.431Z,11.00
2023-05-01T12:01:05.442Z,11.10
2023-05-01T12:02:05.422Z,10.00
2023-05-01T12:03:05.698Z,9.70
2023-05-01T12:04:05.512Z,11.20
2023-05-01T12:05:05.570Z,9.80
2023-05-01T12:06:05.393Z,10.20
2023-05-01T12:07:05.351Z,10.80
2023-05-01T12:08:05.343Z,10.50
2023-05-01T12:09:05.336Z,10.60
2023-05-01T12:10:05.321Z,11.80
2023-05-01T12:11:05.313Z,10.80
2023-05-01T12:12:05.297Z,10.20
2023-05-01T12:13:05.356Z,11.70
2023-05-01T12:14:05.281Z,9.90
2023-05-01T12:15:05.285Z,10.40
2023-05-01T12:16:05.251Z,11.00
2023-05-01T12:17:05.276Z,11.80
2023-05-01T12:18:05.291Z,9.80
2023-05-01T12:19:05.297Z,9.90
2023-05-01T12:20:05.206Z,11.40
2023-05-01T12:21:05.204Z,11.00
2023-05-01T12:22:05.201Z,12.00
2023-05-01T12:23:05.183Z,11.50
2023-05-01T12:24:05.222Z,10.20
2023-05-01T12:25:05.154Z,10.20
2023-05-01T12:26:05.144Z,11.40
2023-05-01T12:27:05.161Z,11.00
2023-05-01T12:28:05.131Z,10.10
2023-05-01T12:29:05.123Z,10.20
2023-05-01T12:30:05.106Z,10.40
2023-05-01T12:31:05.574Z,10.30
2023-05-01T12:32:05.137Z,11.50
2023-05-01T12:33:05.119Z,10.50
2023-05-01T12:34:05.072Z,10.10
2023-05-01T12:35:05.065Z,10.00
2023-05-01T12:36:05.034Z,11.10
2023-05-01T12:37:05.497Z,10.10
2023-05-01T12:38:05.007Z,10.10
2023-05-01T12:39:05.063Z,10.80
2023-05-01T12:40:04.990Z,11.70
2023-05-01T12:41:04.983Z,11.40
2023-05-01T12:42:04.963Z,11.10
2023-05-01T12:43:04.954Z,11.70
2023-05-01T12:44:04.953Z,10.50
2023-05-01T12:45:04.953Z,11.20
2023-05-01T12:46:05.038Z,11.10
2023-05-01T12:47:04.916Z,10.60
2023-05-01T12:48:04.966Z,9.70
2023-05-01T12:49:04.903Z,10.90
2023-05-01T12:50:04.880Z,11.30
2023-05-01T12:51:04.898Z,10.70
2023-05-01T12:52:04.853Z,10.40
2023-05-01T12:53:04.844Z,11.50
2023-05-01T12:54:05.685Z,11.10